createdAt,value
2019-04-01T00:02:46.109Z,21.68
2019-04-01T00:07:50.034Z,21.68
2019-04-01T00:12:53.951Z,21.67
2019-04-01T00:17:57.864Z,21.67
2019-04-01T00:23:01.882Z,21.67
2019-04-01T00:28:05.776Z,21.68
2019-04-01T00:33:09.547Z,21.70
2019-04-01T00:38:13.328Z,21.65
2019-04-01T00:43:24.917Z,21.65
2019-04-01T00:48:28.822Z,21.60
2019-04-01T00:53:32.615Z,21.59
2019-04-01T00:58:36.470Z,21.57
2019-04-01T01:03:40.235Z,21.57
2019-04-01T01:08:44.217Z,21.57
2019-04-01T01:13:47.989Z,21.51
2019-04-01T01:18:51.746Z,21.49
2019-04-01T01:23:55.505Z,21.47
2019-04-01T01:28:59.302Z,21.46
2019-04-01T01:34:03.075Z,21.46
2019-04-01T01:39:06.900Z,21.46
2019-04-01T01:44:10.706Z,21.49
2019-04-01T01:49:14.498Z,21.48
2019-04-01T01:54:18.285Z,21.48
2019-04-01T01:59:22.057Z,21.46
2019-04-01T02:04:25.825Z,21.39
2019-04-01T02:09:29.623Z,21.39
2019-04-01T02:14:33.399Z,21.36
2019-04-01T02:19:37.172Z,21.36
2019-04-01T02:24:40.953Z,21.37
2019-04-01T02:29:44.733Z,21.35
2019-04-01T02:34:48.496Z,21.35
2019-04-01T02:39:52.261Z,21.35
2019-04-01T02:44:56.018Z,21.33
2019-04-01T02:49:59.838Z,21.33
2019-04-01T02:55:06.574Z,21.30
2019-04-01T03:00:09.158Z,21.31
2019-04-01T03:05:12.918Z,21.31
2019-04-01T03:10:16.718Z,21.29
2019-04-01T03:15:20.487Z,21.29
2019-04-01T03:20:24.255Z,21.25
2019-04-01T03:25:28.013Z,21.22
2019-04-01T03:30:31.789Z,21.22
2019-04-01T03:35:35.558Z,21.09
2019-04-01T03:40:39.345Z,21.09
2019-04-01T03:45:43.164Z,21.05
2019-04-01T03:50:46.959Z,20.89
2019-04-01T03:55:50.829Z,21.00
2019-04-01T04:00:54.614Z,20.93
2019-04-01T04:05:58.431Z,20.89
2019-04-01T04:11:02.230Z,20.80
2019-04-01T04:16:06.088Z,20.80
2019-04-01T04:21:09.897Z,20.65
2019-04-01T04:26:13.776Z,20.72
2019-04-01T04:31:17.567Z,20.71
2019-04-01T04:36:21.326Z,20.71
2019-04-01T04:41:25.141Z,20.71
2019-04-01T04:46:29.002Z,20.70
2019-04-01T04:51:32.826Z,20.70
2019-04-01T04:56:36.594Z,20.65
2019-04-01T05:01:40.484Z,20.63
2019-04-01T05:06:44.337Z,20.62
2019-04-01T05:11:48.308Z,20.62
2019-04-01T05:16:52.153Z,20.62
2019-04-01T05:21:55.917Z,20.60
2019-04-01T05:27:00.085Z,20.58
2019-04-01T05:32:03.866Z,20.58
2019-04-01T05:37:09.162Z,20.56
2019-04-01T05:42:13.059Z,20.56
2019-04-01T05:47:17.332Z,20.53
2019-04-01T05:52:21.930Z,20.53
2019-04-01T05:57:25.709Z,20.53
2019-04-01T06:02:29.648Z,20.53
2019-04-01T06:07:33.569Z,20.54
2019-04-01T06:12:37.377Z,20.54
2019-04-01T06:17:41.164Z,20.51
2019-04-01T06:22:45.044Z,20.52
2019-04-01T06:27:48.979Z,20.52
2019-04-01T06:32:52.750Z,20.52
2019-04-01T06:37:56.528Z,20.52
2019-04-01T06:43:00.415Z,20.52
2019-04-01T06:48:04.336Z,20.50
2019-04-01T06:53:08.122Z,20.51
2019-04-01T06:58:12.210Z,20.53
2019-04-01T07:03:18.579Z,20.03
2019-04-01T07:08:21.715Z,19.81
2019-04-01T07:13:25.531Z,19.81
2019-04-01T07:18:29.396Z,16.63
2019-04-01T07:23:33.181Z,15.63
2019-04-01T07:28:36.967Z,15.57
2019-04-01T07:33:40.756Z,15.39
2019-04-01T07:38:44.547Z,16.69
2019-04-01T07:43:48.565Z,18.75
2019-04-01T07:48:52.394Z,19.60
2019-04-01T07:53:56.209Z,19.60
2019-04-01T07:59:00.003Z,20.26
2019-04-01T08:04:03.872Z,20.54
2019-04-01T08:09:07.822Z,20.54
2019-04-01T08:14:11.622Z,20.45
2019-04-01T08:19:15.479Z,20.44
2019-04-01T08:24:19.364Z,20.48
2019-04-01T08:29:30.202Z,20.47
2019-04-01T08:34:28.647Z,20.47
2019-04-01T08:39:32.493Z,20.41
2019-04-01T08:44:36.279Z,20.38
2019-04-01T08:49:40.082Z,20.37
2019-04-01T08:54:43.859Z,20.34
2019-04-01T08:59:48.147Z,20.32
2019-04-01T09:04:51.923Z,20.29
2019-04-01T09:09:55.704Z,20.28
2019-04-01T09:14:59.475Z,20.28
2019-04-01T09:20:03.500Z,20.29
2019-04-01T09:25:07.548Z,20.29
2019-04-01T09:30:11.412Z,20.32
2019-04-01T09:35:15.188Z,20.33
2019-04-01T09:40:18.949Z,20.35
2019-04-01T09:45:22.732Z,20.35
2019-04-01T09:50:26.543Z,20.26
2019-04-01T09:55:30.328Z,20.23
2019-04-01T10:00:34.102Z,20.20
2019-04-01T10:05:37.906Z,20.19
2019-04-01T10:10:41.690Z,20.19
2019-04-01T10:15:45.475Z,20.17
2019-04-01T10:20:49.259Z,20.17
2019-04-01T10:25:53.073Z,20.16
2019-04-01T10:30:56.873Z,20.23
2019-04-01T10:36:00.663Z,20.32
2019-04-01T10:41:04.521Z,20.39
2019-04-01T10:46:11.964Z,20.39
2019-04-01T10:51:13.819Z,20.42
2019-04-01T10:56:17.589Z,20.46
2019-04-01T11:01:21.402Z,20.49
2019-04-01T11:06:25.223Z,20.51
2019-04-01T11:11:28.983Z,20.52
2019-04-01T11:16:32.772Z,20.52
2019-04-01T11:21:36.545Z,20.49
2019-04-01T11:26:40.319Z,20.46
2019-04-01T11:31:44.095Z,20.50
2019-04-01T11:36:47.867Z,20.50
2019-04-01T11:41:51.660Z,20.52
2019-04-01T11:46:55.542Z,20.51
2019-04-01T11:51:59.403Z,18.76
2019-04-01T11:57:03.294Z,19.61
2019-04-01T12:02:07.053Z,19.89
2019-04-01T12:07:10.848Z,20.03
2019-04-01T12:12:23.499Z,20.09
2019-04-01T12:17:20.186Z,20.15
2019-04-01T12:22:23.971Z,20.19
2019-04-01T12:27:27.776Z,20.19
2019-04-01T12:32:31.651Z,20.28
2019-04-01T12:37:35.439Z,20.31
2019-04-01T12:42:39.253Z,20.35
2019-04-01T12:47:43.604Z,20.37
2019-04-01T12:52:47.545Z,20.37
2019-04-01T12:57:51.344Z,20.42
2019-04-01T13:02:55.160Z,20.51
2019-04-01T13:07:58.939Z,20.51
2019-04-01T13:13:02.751Z,20.75
2019-04-01T13:18:06.522Z,20.73
2019-04-01T13:23:10.348Z,20.96
2019-04-01T13:28:14.140Z,21.02
2019-04-01T13:33:20.933Z,21.02
2019-04-01T13:38:24.972Z,21.06
2019-04-01T13:43:28.904Z,21.09
2019-04-01T13:48:32.682Z,21.09
2019-04-01T13:53:36.526Z,21.07
2019-04-01T13:58:40.414Z,21.06
2019-04-01T14:03:44.293Z,21.10
2019-04-01T14:08:48.173Z,21.14
2019-04-01T14:13:52.021Z,21.20
2019-04-01T14:18:55.802Z,21.20
2019-04-01T14:23:59.625Z,21.23
2019-04-01T14:29:06.149Z,21.27
2019-04-01T14:34:13.875Z,21.28
2019-04-01T14:39:16.610Z,21.31
2019-04-01T14:44:20.545Z,21.33
2019-04-01T14:49:24.394Z,21.40
2019-04-01T14:54:28.484Z,21.40
2019-04-01T14:59:32.287Z,21.45
2019-04-01T15:04:36.331Z,21.54
2019-04-01T15:09:40.082Z,21.83
2019-04-01T15:14:43.885Z,21.57
2019-04-01T15:19:48.635Z,21.57
2019-04-01T15:24:52.783Z,21.70
2019-04-01T15:29:57.379Z,21.61
2019-04-01T15:35:02.149Z,21.61
2019-04-01T15:40:06.856Z,21.68
2019-04-01T15:45:10.647Z,21.68
2019-04-01T15:50:27.841Z,21.92
2019-04-01T15:55:20.091Z,21.91
2019-04-01T16:00:24.176Z,21.93
2019-04-01T16:05:30.466Z,21.76
2019-04-01T16:10:33.596Z,21.77
2019-04-01T16:15:38.377Z,21.96
2019-04-01T16:20:42.596Z,21.96
2019-04-01T16:25:46.366Z,21.78
2019-04-01T16:30:50.132Z,21.85
2019-04-01T16:35:53.917Z,21.75
2019-04-01T16:40:57.722Z,21.77
2019-04-01T16:46:01.492Z,21.79
2019-04-01T16:51:05.313Z,21.79
2019-04-01T16:56:09.312Z,21.81
2019-04-01T17:01:13.248Z,21.76
2019-04-01T17:06:17.007Z,21.79
2019-04-01T17:11:20.804Z,21.81
2019-04-01T17:16:24.605Z,21.79
2019-04-01T17:21:28.383Z,21.79
2019-04-01T17:26:32.187Z,21.93
2019-04-01T17:31:35.951Z,21.89
2019-04-01T17:36:40.133Z,21.88
2019-04-01T17:41:46.343Z,21.88
2019-04-01T17:46:49.526Z,21.90
2019-04-01T17:51:54.141Z,21.90
2019-04-01T17:56:58.268Z,22.32
2019-04-01T18:02:02.053Z,22.40
2019-04-01T18:07:07.354Z,22.40
2019-04-01T18:12:11.373Z,22.36
2019-04-01T18:17:18.348Z,22.31
2019-04-01T18:22:20.653Z,22.26
2019-04-01T18:27:24.425Z,22.21
2019-04-01T18:32:28.200Z,22.12
2019-04-01T18:37:32.022Z,22.10
2019-04-01T18:42:35.787Z,22.06
2019-04-01T18:47:39.682Z,22.04
2019-04-01T18:52:43.711Z,22.01
2019-04-01T18:57:47.469Z,21.98
2019-04-01T19:02:51.341Z,21.98
2019-04-01T19:07:55.106Z,21.99
2019-04-01T19:13:05.804Z,22.01
2019-04-01T19:18:04.382Z,22.01
2019-04-01T19:23:08.144Z,21.94
2019-04-01T19:28:11.900Z,21.94
2019-04-01T19:33:15.752Z,21.93
2019-04-01T19:38:21.282Z,21.89
2019-04-01T19:43:25.051Z,21.89
2019-04-01T19:48:28.844Z,21.88
2019-04-01T19:53:32.630Z,21.89
2019-04-01T19:58:36.425Z,21.84
2019-04-01T20:03:40.275Z,21.83
2019-04-01T20:08:44.057Z,21.78
2019-04-01T20:13:47.896Z,21.77
2019-04-01T20:18:51.654Z,21.78
2019-04-01T20:23:55.420Z,21.80
2019-04-01T20:28:59.206Z,21.81
2019-04-01T20:34:04.410Z,21.83
2019-04-01T20:39:08.557Z,21.83
2019-04-01T20:44:12.822Z,21.85
2019-04-01T20:49:16.694Z,21.79
2019-04-01T20:54:20.501Z,21.74
2019-04-01T20:59:24.365Z,21.84
2019-04-01T21:04:28.161Z,21.84
2019-04-01T21:09:31.919Z,21.79
2019-04-01T21:14:35.751Z,21.74
2019-04-01T21:19:39.610Z,21.74
2019-04-01T21:24:43.549Z,21.71
2019-04-01T21:29:47.360Z,21.73
2019-04-01T21:34:51.185Z,21.73
2019-04-01T21:39:54.962Z,21.72
2019-04-01T21:44:58.751Z,21.72
2019-04-01T21:50:02.575Z,21.72
2019-04-01T21:55:08.171Z,21.70
2019-04-01T22:00:17.798Z,21.70
2019-04-01T22:05:20.570Z,21.79
2019-04-01T22:10:24.390Z,21.73
2019-04-01T22:15:28.261Z,21.62
2019-04-01T22:20:32.073Z,21.73
2019-04-01T22:25:35.892Z,21.69
2019-04-01T22:30:39.702Z,21.71
2019-04-01T22:35:43.495Z,21.68
2019-04-01T22:40:47.313Z,21.69
2019-04-01T22:45:51.152Z,21.65
2019-04-01T22:50:57.546Z,21.65
2019-04-01T22:56:00.479Z,21.65
2019-04-01T23:01:04.257Z,21.66
2019-04-01T23:06:08.068Z,21.66
2019-04-01T23:11:11.842Z,21.65
2019-04-01T23:16:15.675Z,21.64
2019-04-01T23:21:19.459Z,21.63
2019-04-01T23:26:23.251Z,21.66
2019-04-01T23:31:27.038Z,21.66
2019-04-01T23:36:30.829Z,21.66
2019-04-01T23:41:34.605Z,21.64
2019-04-01T23:46:38.406Z,21.58
2019-04-01T23:51:42.303Z,21.54
2019-04-01T23:56:46.108Z,21.51
